Airfield :
LOGIN :

Register | Disclaimer

   EN    FR    IT 

 










Legend :    VFR   Marginal VFR   IFR   Intensive IFR   Very Intensive IFR
Visi :
Ceiling :
>= 8 km
>= 3000ft
5 to 8 km
1000 to 3000 ft
1500m to 5 km
500 to 1000 ft
800 to 1500m
200 to 500 ft
< 800m
< 200 ft
Symbols :   Thunderstorms  Fog  Heavy snow  Heavy precipitations  Wind > 20 kt
SIGMETs :     Misc.  Thunderstorms  Icing  Turbulence  Mountain Waves  Volcanic Ashes







- Airport Elevation : 7 ft
- IATA code : VCE


LIPZ - Marco Polo Int. Venezia

CURRENT METAR :
  • 222320Z 12003KT 080V140 1800 BR BKN003 07/06 Q1017 NOSIG

EXPIRED METARs :
  • 222250Z 13003KT 110V180 1800 BR BKN003 07/06 Q1018 NOSIG
  • 222220Z 15003KT 110V190 1800 BR BKN003 07/06 Q1018 NOSIG
  • 222150Z 14004KT 1800 BR SCT003 OVC016 07/06 Q1018 NOSIG
  • 222120Z 15004KT 120V180 1800 BR SCT003 OVC016 07/06 Q1018 NOSIG

TAF TAF LIPZ
Valid from the 23 at 00:00 until the 24 at 06:00 UTC


222300Z 2300/2406 VRB05KT 1500 BR BKN015
TEMPO 2300/2308 0400 FG BKN004
BECMG 2310/2312 3000 BR
BECMG 2322/2324 0400 FG BKN004
No reported NOTAMs for that airfield.



MET'MAP, your aeronautical weather chart ! - Copyright ORBIFLY December 2007 - Disclaimer

ORBIFLY MET'MAP TEAM :

Programming & Development : Alexandra Zaïnal
Concept & Development : Baudouin d'Aumeries
Co-Development & Prog : Marc-Olivier Méhu
Technical & hardware support : Manuel Goepfert

Contact : metmap@orbifly.com




SOURCES & CREDITS :

   NOAA